Time;durP1;ratioP1;P1;durP2;ratioP2;P2;SDS_P1;SDS_P2;PMS_P1;PMS_P2;Temp;Humidity;BMP_temperature;BMP_pressure;BME280_temperature;BME280_humidity;BME280_pressure;Samples;Min_cycle;Max_cycle;Signal;HPM_P1;HPM_P2
2021/03/03 00:00:21;;;;;;;3.47;3.17;;;22.70;47.20;;;;;;5036685;28;20278;-70
2021/03/03 00:02:47;;;;;;;4.37;3.57;;;22.70;47.20;;;;;;5036310;28;20172;-70
2021/03/03 00:05:14;;;;;;;5.07;3.20;;;22.70;47.20;;;;;;5036300;28;20409;-70
2021/03/03 00:07:39;;;;;;;4.50;3.77;;;22.70;47.20;;;;;;5036138;28;20289;-70
2021/03/03 00:10:05;;;;;;;6.40;4.40;;;22.70;47.30;;;;;;5036524;28;20442;-69
2021/03/03 00:12:31;;;;;;;4.40;3.40;;;22.70;47.30;;;;;;5034907;28;20207;-69
2021/03/03 00:14:57;;;;;;;4.50;3.53;;;22.70;47.20;;;;;;5036125;28;20947;-70
2021/03/03 00:17:22;;;;;;;5.00;3.77;;;22.70;47.20;;;;;;5035939;28;20230;-69
2021/03/03 00:19:48;;;;;;;3.93;3.53;;;22.70;47.30;;;;;;5036083;28;20164;-70
2021/03/03 00:22:13;;;;;;;3.57;3.10;;;22.70;47.30;;;;;;5035996;28;20217;-70
2021/03/03 00:24:40;;;;;;;5.43;3.87;;;22.70;47.30;;;;;;5035969;28;20171;-70
2021/03/03 00:27:06;;;;;;;4.37;3.20;;;22.70;47.30;;;;;;5035789;28;20160;-69
2021/03/03 00:29:32;;;;;;;3.93;3.20;;;22.70;47.30;;;;;;5035871;28;20434;-70
2021/03/03 00:31:57;;;;;;;4.60;3.10;;;22.70;47.30;;;;;;5034903;28;20266;-69
2021/03/03 00:34:23;;;;;;;3.50;3.20;;;22.70;47.30;;;;;;5036016;28;20195;-68
2021/03/03 00:36:48;;;;;;;4.53;3.47;;;22.60;47.20;;;;;;5035481;28;20275;-69
2021/03/03 00:39:14;;;;;;;5.40;3.63;;;22.70;47.30;;;;;;5035907;28;20246;-69
2021/03/03 00:41:40;;;;;;;4.63;3.83;;;22.70;47.30;;;;;;5035024;28;20533;-69
2021/03/03 00:44:05;;;;;;;4.70;3.40;;;22.60;47.20;;;;;;5034332;28;20215;-70
2021/03/03 00:46:31;;;;;;;3.40;3.10;;;22.60;47.20;;;;;;5035596;28;20198;-69
2021/03/03 00:48:56;;;;;;;3.83;3.43;;;22.60;47.20;;;;;;5035435;28;20250;-69
2021/03/03 00:51:22;;;;;;;3.60;3.10;;;22.60;47.20;;;;;;5035462;28;20700;-69
2021/03/03 00:53:47;;;;;;;4.70;3.17;;;22.60;47.20;;;;;;5035438;28;20171;-69
2021/03/03 00:56:13;;;;;;;5.40;3.90;;;22.60;47.20;;;;;;5035389;28;20605;-69
2021/03/03 00:58:39;;;;;;;3.60;3.00;;;22.60;47.20;;;;;;5035431;28;20677;-70
2021/03/03 01:01:04;;;;;;;4.20;3.47;;;22.60;47.20;;;;;;5034310;28;20172;-68
2021/03/03 01:03:30;;;;;;;4.60;3.43;;;22.60;47.20;;;;;;5035327;28;20168;-67
2021/03/03 01:05:56;;;;;;;4.03;3.63;;;22.60;47.20;;;;;;5035446;28;20254;-68
2021/03/03 01:08:21;;;;;;;4.17;3.73;;;22.60;47.30;;;;;;5035135;28;20218;-68
2021/03/03 01:10:47;;;;;;;3.33;3.03;;;22.60;47.30;;;;;;5033852;28;20546;-68
2021/03/03 01:13:13;;;;;;;5.93;4.20;;;22.60;47.20;;;;;;5035043;28;20179;-67
2021/03/03 01:15:38;;;;;;;3.90;3.53;;;22.60;47.20;;;;;;5034966;28;20179;-68
2021/03/03 01:18:04;;;;;;;3.73;3.30;;;22.60;47.30;;;;;;5034840;28;20207;-68
2021/03/03 01:20:31;;;;;;;4.80;3.50;;;22.60;47.20;;;;;;5034922;28;20175;-67
2021/03/03 01:22:58;;;;;;;5.40;4.03;;;22.60;47.20;;;;;;5034867;28;20172;-68
2021/03/03 01:25:24;;;;;;;3.40;3.10;;;22.60;47.20;;;;;;5034873;28;20406;-67
2021/03/03 01:27:49;;;;;;;4.27;3.20;;;22.60;47.30;;;;;;5034743;28;20433;-67
2021/03/03 01:30:16;;;;;;;3.43;3.03;;;22.60;47.30;;;;;;5035353;28;20410;-67
2021/03/03 01:32:41;;;;;;;3.73;3.40;;;22.60;47.20;;;;;;5034983;28;20559;-67
2021/03/03 01:35:07;;;;;;;4.23;3.70;;;22.60;47.20;;;;;;5034641;28;20438;-68
2021/03/03 01:37:33;;;;;;;4.40;3.20;;;22.60;47.20;;;;;;5033026;28;20211;-68
2021/03/03 01:39:59;;;;;;;3.40;3.10;;;22.60;47.30;;;;;;5034802;28;20426;-69
2021/03/03 01:42:24;;;;;;;3.53;3.23;;;22.60;47.20;;;;;;5035308;28;20619;-69
2021/03/03 01:44:50;;;;;;;3.57;3.27;;;22.60;47.20;;;;;;5033401;28;20179;-69
2021/03/03 01:47:16;;;;;;;4.00;3.20;;;22.60;47.20;;;;;;5034962;28;20201;-69
2021/03/03 01:49:41;;;;;;;3.10;2.70;;;22.60;47.20;;;;;;5034387;28;20202;-69
2021/03/03 01:52:08;;;;;;;3.67;3.33;;;22.60;47.20;;;;;;5034335;28;20199;-69
2021/03/03 01:54:33;;;;;;;3.30;2.90;;;22.60;47.20;;;;;;5035037;28;20514;-69
2021/03/03 01:57:01;;;;;;;4.07;2.97;;;22.60;47.30;;;;;;5032787;28;20442;-70
2021/03/03 01:59:26;;;;;;;5.00;3.17;;;22.60;47.20;;;;;;5034165;28;20275;-69
2021/03/03 02:01:52;;;;;;;4.00;3.20;;;22.60;47.20;;;;;;5032931;28;20513;-69
2021/03/03 02:04:18;;;;;;;4.30;3.30;;;22.60;47.20;;;;;;5034082;28;20179;-69
2021/03/03 02:07:14;;;;;;;4.37;3.43;;;22.60;47.20;;;;;;5034012;28;20414;-70
2021/03/03 02:09:54;;;;;;;3.77;3.27;;;22.60;47.20;;;;;;5032816;28;20415;-70
2021/03/03 02:12:37;;;;;;;5.60;3.97;;;22.60;47.20;;;;;;5033968;28;20797;-68
2021/03/03 02:15:05;;;;;;;4.13;3.17;;;22.60;47.20;;;;;;5034253;28;20404;-70
2021/03/03 02:17:32;;;;;;;3.60;3.30;;;22.60;47.20;;;;;;5033735;28;20827;-69
2021/03/03 02:20:06;;;;;;;3.80;3.47;;;22.60;47.20;;;;;;5033840;28;20402;-69
2021/03/03 02:22:57;;;;;;;3.93;3.50;;;22.60;47.20;;;;;;5034063;28;20746;-70
2021/03/03 02:25:33;;;;;;;4.10;3.47;;;22.60;47.20;;;;;;5033703;28;20429;-70
2021/03/03 02:28:02;;;;;;;3.07;2.70;;;22.60;47.20;;;;;;5033693;28;20426;-69
2021/03/03 02:30:29;;;;;;;3.57;3.20;;;22.60;47.30;;;;;;5033606;28;20414;-69
2021/03/03 02:32:57;;;;;;;4.50;3.00;;;22.60;47.20;;;;;;5033857;28;20418;-69
2021/03/03 02:35:23;;;;;;;4.03;3.10;;;22.60;47.20;;;;;;5032336;28;20421;-68
2021/03/03 02:37:49;;;;;;;3.90;3.50;;;22.60;47.20;;;;;;5033501;28;20465;-69
2021/03/03 02:40:16;;;;;;;3.43;3.13;;;22.60;47.20;;;;;;5033402;28;20820;-70
2021/03/03 02:42:42;;;;;;;3.77;3.07;;;22.60;47.20;;;;;;5033422;28;20769;-70
2021/03/03 02:45:11;;;;;;;3.13;2.73;;;22.60;47.20;;;;;;5032237;28;20929;-69
2021/03/03 02:47:38;;;;;;;4.00;3.40;;;22.60;47.20;;;;;;5033344;28;20426;-70
2021/03/03 02:50:09;;;;;;;4.43;4.03;;;22.60;47.20;;;;;;5033688;28;20847;-69
2021/03/03 02:52:52;;;;;;;3.93;3.10;;;22.60;47.20;;;;;;5033358;28;20405;-69
2021/03/03 02:55:19;;;;;;;3.40;2.90;;;22.60;47.20;;;;;;5033404;28;20414;-69
2021/03/03 02:57:45;;;;;;;3.10;2.70;;;22.50;47.20;;;;;;5033117;28;20454;-70
2021/03/03 03:00:18;;;;;;;3.70;3.00;;;22.50;47.20;;;;;;5031980;28;20517;-69
2021/03/03 03:02:47;;;;;;;4.50;3.67;;;22.50;47.20;;;;;;5033250;28;20451;-69
2021/03/03 03:05:15;;;;;;;3.30;2.63;;;22.60;47.20;;;;;;5032693;28;20406;-69
2021/03/03 03:07:47;;;;;;;4.20;2.93;;;22.50;47.20;;;;;;5034574;28;20426;-67
2021/03/03 03:10:15;;;;;;;3.73;2.63;;;22.50;47.10;;;;;;5034297;28;20883;-68
2021/03/03 03:12:45;;;;;;;3.53;3.23;;;22.60;47.20;;;;;;5035483;28;20772;-67
2021/03/03 03:15:15;;;;;;;4.90;3.43;;;22.50;47.20;;;;;;5036065;28;20414;-68
2021/03/03 03:17:42;;;;;;;3.20;2.90;;;22.50;47.10;;;;;;5034722;28;20881;-68
2021/03/03 03:20:17;;;;;;;3.43;2.87;;;22.50;47.20;;;;;;5033019;28;20406;-66
2021/03/03 03:22:44;;;;;;;3.40;3.00;;;22.50;47.20;;;;;;5031847;28;20456;-67
2021/03/03 03:25:13;;;;;;;3.20;2.90;;;22.50;47.20;;;;;;5033094;28;20434;-68
2021/03/03 03:27:39;;;;;;;3.40;2.67;;;22.50;47.20;;;;;;5031615;28;20442;-68
2021/03/03 03:30:06;;;;;;;4.27;3.10;;;22.60;47.20;;;;;;5033232;28;20410;-68
2021/03/03 03:32:32;;;;;;;2.97;2.60;;;22.50;47.20;;;;;;5032839;28;20418;-66
2021/03/03 03:34:59;;;;;;;3.63;3.27;;;22.50;47.10;;;;;;5032845;28;20913;-67
2021/03/03 03:37:25;;;;;;;3.10;2.80;;;22.50;47.70;;;;;;5031319;28;20557;-68
2021/03/03 03:39:52;;;;;;;3.17;2.87;;;22.50;47.10;;;;;;5031832;28;20981;-68
2021/03/03 03:42:19;;;;;;;3.30;2.67;;;22.50;47.10;;;;;;5032770;28;20489;-67
2021/03/03 03:44:46;;;;;;;4.17;3.77;;;22.50;47.10;;;;;;5032994;28;20406;-68
2021/03/03 03:47:16;;;;;;;3.13;2.80;;;22.50;47.10;;;;;;5032667;28;20438;-67
2021/03/03 03:49:44;;;;;;;3.40;2.93;;;22.50;47.10;;;;;;5032712;28;20456;-68
2021/03/03 03:52:13;;;;;;;3.90;3.30;;;22.50;47.10;;;;;;5032709;28;20406;-68
2021/03/03 03:54:38;;;;;;;3.47;3.17;;;22.50;47.10;;;;;;5032650;28;20497;-68
2021/03/03 03:57:04;;;;;;;4.13;3.10;;;22.50;47.10;;;;;;5032464;28;20548;-68
2021/03/03 03:59:30;;;;;;;3.63;2.90;;;22.50;47.10;;;;;;5032666;28;20172;-68
2021/03/03 04:01:55;;;;;;;3.70;3.30;;;22.50;47.10;;;;;;5032620;28;20417;-68
2021/03/03 04:04:21;;;;;;;2.90;2.60;;;22.50;47.10;;;;;;5032624;28;20172;-68
2021/03/03 04:06:47;;;;;;;3.20;2.90;;;22.50;47.10;;;;;;5031398;28;20259;-67
2021/03/03 04:09:12;;;;;;;4.47;3.57;;;22.50;47.10;;;;;;5032464;28;20200;-67
2021/03/03 04:11:38;;;;;;;3.40;2.90;;;22.50;47.10;;;;;;5032606;28;20176;-67
2021/03/03 04:14:09;;;;;;;3.70;3.00;;;22.50;47.10;;;;;;5032786;28;20164;-67
2021/03/03 04:16:35;;;;;;;3.03;2.47;;;22.50;47.10;;;;;;5033179;28;20885;-67
2021/03/03 04:19:01;;;;;;;3.17;2.87;;;22.50;47.10;;;;;;5035958;28;20460;-67
2021/03/03 04:21:26;;;;;;;3.30;3.00;;;22.50;47.10;;;;;;5036045;28;20250;-68
2021/03/03 04:23:52;;;;;;;3.63;3.10;;;22.60;47.20;;;;;;5036017;28;20168;-68
2021/03/03 04:26:17;;;;;;;3.10;2.80;;;22.50;47.10;;;;;;5036239;28;20224;-67
2021/03/03 04:28:43;;;;;;;3.30;3.00;;;22.50;47.10;;;;;;5035855;28;20202;-67
2021/03/03 04:31:09;;;;;;;3.13;2.80;;;22.50;47.10;;;;;;5035849;28;20179;-67
2021/03/03 04:33:34;;;;;;;3.03;2.67;;;22.50;47.10;;;;;;5034653;28;20172;-68
2021/03/03 04:36:00;;;;;;;3.70;3.10;;;22.50;47.10;;;;;;5034593;28;20182;-67
2021/03/03 04:38:25;;;;;;;3.60;2.97;;;22.50;47.10;;;;;;5035495;28;20291;-68
2021/03/03 04:40:51;;;;;;;2.73;2.47;;;22.50;47.20;;;;;;5035685;28;20282;-68
2021/03/03 04:43:16;;;;;;;3.00;2.70;;;22.50;47.10;;;;;;5035633;28;20218;-68
2021/03/03 04:45:42;;;;;;;3.70;3.40;;;22.50;47.10;;;;;;5035825;28;20700;-68
2021/03/03 04:48:08;;;;;;;2.80;2.50;;;22.50;47.10;;;;;;5034230;28;20235;-68
2021/03/03 04:50:35;;;;;;;4.63;3.20;;;22.50;47.10;;;;;;5035757;28;20179;-68
2021/03/03 04:53:00;;;;;;;3.37;3.07;;;22.50;47.20;;;;;;5035678;28;20460;-67
2021/03/03 04:55:26;;;;;;;3.20;2.90;;;22.50;47.20;;;;;;5035422;28;20491;-67
2021/03/03 04:57:51;;;;;;;3.40;2.83;;;22.50;47.20;;;;;;5035270;28;20200;-68
2021/03/03 05:00:18;;;;;;;3.40;3.10;;;22.50;47.20;;;;;;5035234;28;20193;-68
2021/03/03 05:02:44;;;;;;;3.70;3.37;;;22.50;47.20;;;;;;5035269;28;20175;-68
2021/03/03 05:05:10;;;;;;;2.97;2.50;;;22.50;47.20;;;;;;5035230;28;20406;-67
2021/03/03 05:07:35;;;;;;;2.90;2.60;;;22.50;47.20;;;;;;5035122;28;20678;-68
2021/03/03 05:10:01;;;;;;;3.60;2.90;;;22.50;47.20;;;;;;5035441;28;20407;-68
2021/03/03 05:12:27;;;;;;;3.60;3.13;;;22.50;47.20;;;;;;5035141;28;20171;-68
2021/03/03 05:14:53;;;;;;;3.83;3.20;;;22.50;47.20;;;;;;5035315;28;20257;-67
2021/03/03 05:17:19;;;;;;;3.20;2.60;;;22.40;47.10;;;;;;5033562;28;20505;-67
2021/03/03 05:19:44;;;;;;;3.83;2.90;;;22.40;47.10;;;;;;5035228;28;20172;-68
2021/03/03 05:22:10;;;;;;;3.07;2.83;;;22.40;47.10;;;;;;5035170;28;20555;-67
2021/03/03 05:24:35;;;;;;;2.80;2.60;;;22.40;47.10;;;;;;5034864;28;20251;-67
2021/03/03 05:27:01;;;;;;;3.13;2.83;;;22.40;47.20;;;;;;5034634;28;20639;-68
2021/03/03 05:29:27;;;;;;;3.70;2.77;;;22.40;47.20;;;;;;5034734;28;20218;-68
2021/03/03 05:31:53;;;;;;;3.63;3.00;;;22.40;47.10;;;;;;5034992;28;20164;-67
2021/03/03 05:34:18;;;;;;;3.07;2.77;;;22.40;47.20;;;;;;5034626;28;20460;-68
2021/03/03 05:36:44;;;;;;;3.70;3.00;;;22.40;47.20;;;;;;5033362;28;20575;-68
2021/03/03 05:39:10;;;;;;;3.03;2.63;;;22.40;47.20;;;;;;5034382;28;20199;-68
2021/03/03 05:41:35;;;;;;;3.43;2.80;;;22.40;47.10;;;;;;5034504;28;20206;-68
2021/03/03 05:44:01;;;;;;;3.60;3.00;;;22.40;47.10;;;;;;5034744;28;20176;-67
2021/03/03 05:46:27;;;;;;;5.40;2.87;;;22.40;47.10;;;;;;5033198;28;20654;-68
2021/03/03 05:48:56;;;;;;;2.87;2.60;;;22.50;47.20;;;;;;5034301;28;20203;-67
2021/03/03 05:51:25;;;;;;;3.10;2.60;;;22.40;47.20;;;;;;5033138;28;20198;-67
2021/03/03 05:53:51;;;;;;;3.27;2.93;;;22.50;47.20;;;;;;5033105;28;20419;-68
2021/03/03 05:56:22;;;;;;;2.90;2.50;;;22.50;47.20;;;;;;5033056;28;20503;-68
2021/03/03 05:58:48;;;;;;;3.63;3.10;;;22.50;47.10;;;;;;5034376;28;20835;-67
2021/03/03 06:01:14;;;;;;;3.70;3.10;;;22.50;47.10;;;;;;5034184;28;20442;-67
2021/03/03 06:03:41;;;;;;;3.40;3.10;;;22.50;47.10;;;;;;5032936;28;20465;-67
2021/03/03 06:06:07;;;;;;;3.60;2.97;;;22.50;47.10;;;;;;5034244;28;20627;-68
2021/03/03 06:08:33;;;;;;;2.90;2.60;;;22.50;47.10;;;;;;5033990;28;20433;-68
2021/03/03 06:10:59;;;;;;;4.03;3.10;;;22.50;47.10;;;;;;5034293;28;20171;-68
2021/03/03 06:13:25;;;;;;;4.13;3.30;;;22.50;47.00;;;;;;5033826;28;20262;-67
2021/03/03 06:15:51;;;;;;;3.63;3.33;;;22.50;47.00;;;;;;5033881;28;20993;-66
2021/03/03 06:18:19;;;;;;;3.07;2.77;;;22.50;47.00;;;;;;5033694;28;20576;-68
2021/03/03 06:20:46;;;;;;;4.57;3.00;;;22.50;47.00;;;;;;5034270;28;20515;-68
2021/03/03 06:23:16;;;;;;;3.77;2.80;;;22.50;47.00;;;;;;5033984;28;20410;-68
2021/03/03 06:25:42;;;;;;;3.33;3.03;;;22.50;47.00;;;;;;5033711;28;20410;-67
2021/03/03 06:28:08;;;;;;;4.17;3.33;;;22.60;47.10;;;;;;5033574;28;20438;-66
2021/03/03 06:30:34;;;;;;;4.40;2.93;;;22.50;47.00;;;;;;5033945;28;20410;-67
2021/03/03 06:33:01;;;;;;;5.53;3.83;;;22.60;47.10;;;;;;5032411;28;20425;-67
2021/03/03 06:35:44;;;;;;;4.80;3.40;;;22.60;47.10;;;;;;5033514;28;20172;-68
2021/03/03 06:38:12;;;;;;;5.23;3.50;;;22.60;47.00;;;;;;5033198;28;20521;-66
2021/03/03 06:40:52;;;;;;;3.40;3.10;;;22.60;47.10;;;;;;5032853;28;20414;-68
2021/03/03 06:43:23;;;;;;;4.00;3.00;;;22.60;47.10;;;;;;5033826;28;20395;-67
2021/03/03 06:45:49;;;;;;;7.83;3.17;;;22.60;47.10;;;;;;5033671;28;20422;-66
2021/03/03 06:48:43;;;;;;;4.37;3.57;;;22.50;47.00;;;;;;5033245;28;20464;-66
2021/03/03 06:51:35;;;;;;;3.60;2.80;;;22.60;47.10;;;;;;5033339;28;20957;-68
2021/03/03 06:54:03;;;;;;;4.27;3.87;;;22.60;47.10;;;;;;5032333;28;20417;-69
2021/03/03 06:56:32;;;;;;;4.47;3.63;;;22.50;47.00;;;;;;5033227;28;20414;-68
2021/03/03 06:59:13;;;;;;;3.90;3.20;;;22.60;47.10;;;;;;5032224;28;20462;-68
2021/03/03 07:01:40;;;;;;;4.03;3.13;;;22.60;47.00;;;;;;5033488;28;20952;-68
2021/03/03 07:04:23;;;;;;;5.10;3.40;;;22.60;47.10;;;;;;5033479;28;20406;-68
2021/03/03 07:06:49;;;;;;;5.00;3.57;;;22.60;47.00;;;;;;5033106;28;20382;-68
2021/03/03 07:09:15;;;;;;;3.87;3.03;;;22.60;47.10;;;;;;5033054;28;20426;-68
2021/03/03 07:11:42;;;;;;;3.70;2.83;;;22.60;47.10;;;;;;5033070;28;20409;-67
2021/03/03 07:14:22;;;;;;;3.40;2.83;;;22.60;47.10;;;;;;5033003;28;20467;-67
2021/03/03 07:17:00;;;;;;;5.00;3.57;;;22.60;47.10;;;;;;5031666;28;20414;-67
2021/03/03 07:19:26;;;;;;;4.10;3.13;;;22.70;47.10;;;;;;5031601;28;20960;-68
2021/03/03 07:21:52;;;;;;;4.10;2.93;;;22.70;47.20;;;;;;5032937;28;20414;-68
2021/03/03 07:24:19;;;;;;;4.83;3.70;;;22.60;47.10;;;;;;5032886;28;20523;-68
2021/03/03 07:26:45;;;;;;;5.60;3.10;;;22.70;47.20;;;;;;5032871;28;20178;-66
2021/03/03 07:29:11;;;;;;;4.57;4.00;;;22.60;47.70;;;;;;5031424;28;20921;-68
2021/03/03 07:31:39;;;;;;;4.20;3.67;;;22.70;47.20;;;;;;5032818;28;20426;-67
2021/03/03 07:34:06;;;;;;;5.93;3.50;;;22.70;47.10;;;;;;5032866;28;20927;-68
2021/03/03 07:36:37;;;;;;;5.50;5.00;;;22.70;47.10;;;;;;5031455;28;20422;-67
2021/03/03 07:39:05;;;;;;;4.67;3.30;;;22.70;47.00;;;;;;5034142;28;20474;-67
2021/03/03 07:41:39;;;;;;;5.10;4.30;;;22.70;47.00;;;;;;5032839;28;20403;-68
2021/03/03 07:44:06;;;;;;;4.10;3.70;;;22.70;47.00;;;;;;5032664;28;20390;-67
2021/03/03 07:46:32;;;;;;;4.60;3.80;;;22.70;47.00;;;;;;5032746;28;20421;-67
2021/03/03 07:48:59;;;;;;;4.47;3.63;;;22.80;47.10;;;;;;5032636;28;20438;-68
2021/03/03 07:51:25;;;;;;;4.43;3.97;;;22.80;47.70;;;;;;5033508;28;20281;-69
2021/03/03 07:53:51;;;;;;;5.87;3.53;;;22.80;47.10;;;;;;5036469;28;20453;-69
2021/03/03 07:56:17;;;;;;;4.00;3.60;;;22.80;47.10;;;;;;5036463;28;20182;-68
2021/03/03 07:58:43;;;;;;;4.83;4.10;;;22.80;47.10;;;;;;5036417;28;20662;-69
2021/03/03 08:01:10;;;;;;;6.53;4.07;;;22.80;47.10;;;;;;5036581;28;20402;-68
2021/03/03 08:03:43;;;;;;;4.77;3.70;;;22.80;47.10;;;;;;5036292;28;20414;-69
2021/03/03 08:06:21;;;;;;;4.27;3.83;;;22.80;47.00;;;;;;5036216;28;20444;-68
2021/03/03 08:09:05;;;;;;;7.00;4.40;;;22.80;47.00;;;;;;5036224;28;20452;-67
2021/03/03 08:11:35;;;;;;;5.57;4.60;;;22.80;47.00;;;;;;5034958;28;20917;-69
2021/03/03 08:14:22;;;;;;;7.80;4.10;;;22.80;47.00;;;;;;5036214;28;20409;-68
2021/03/03 08:16:55;;;;;;;4.43;3.83;;;22.80;47.00;;;;;;5035998;28;20449;-68
2021/03/03 08:19:21;;;;;;;6.63;4.00;;;22.80;47.00;;;;;;5036042;28;20450;-69
2021/03/03 08:21:47;;;;;;;5.00;3.90;;;22.80;47.00;;;;;;5035925;28;20460;-67
2021/03/03 08:24:37;;;;;;;4.40;3.50;;;22.80;47.00;;;;;;5034673;28;20266;-67
2021/03/03 08:27:23;;;;;;;5.73;4.13;;;22.90;47.10;;;;;;5036147;28;20402;-68
2021/03/03 08:30:17;;;;;;;4.10;3.60;;;22.80;47.10;;;;;;5035739;28;20422;-67
2021/03/03 08:32:43;;;;;;;5.27;4.77;;;22.80;47.00;;;;;;5035773;28;20406;-68
2021/03/03 08:35:10;;;;;;;4.60;3.57;;;22.80;47.10;;;;;;5035772;28;20407;-68
2021/03/03 08:37:38;;;;;;;4.60;3.87;;;22.80;47.10;;;;;;5035436;28;20203;-68
2021/03/03 08:40:25;;;;;;;6.90;4.20;;;22.90;47.20;;;;;;5035642;28;20414;-69
2021/03/03 08:42:51;;;;;;;4.73;3.57;;;22.90;47.20;;;;;;5036296;28;20422;-68
2021/03/03 08:45:17;;;;;;;4.77;3.50;;;22.80;47.10;;;;;;5035565;28;20414;-68
2021/03/03 08:47:53;;;;;;;4.30;3.53;;;22.90;47.20;;;;;;5035602;28;20274;-68
2021/03/03 08:50:31;;;;;;;5.30;4.40;;;22.90;47.20;;;;;;5035589;28;20419;-67
2021/03/03 08:53:25;;;;;;;5.00;3.77;;;22.90;47.20;;;;;;5035338;28;20406;-68
2021/03/03 08:55:52;;;;;;;4.27;3.90;;;22.90;47.20;;;;;;5034074;28;20458;-67
2021/03/03 08:58:33;;;;;;;4.60;4.07;;;22.80;47.20;;;;;;5035255;28;20985;-68
2021/03/03 09:00:59;;;;;;;5.90;3.80;;;22.90;47.20;;;;;;5035247;28;20414;-68
2021/03/03 09:03:25;;;;;;;5.10;3.20;;;22.90;47.20;;;;;;5033288;28;20414;-68
2021/03/03 09:05:51;;;;;;;5.90;3.40;;;22.90;47.30;;;;;;5033999;28;20502;-68
2021/03/03 09:08:21;;;;;;;4.03;3.20;;;22.90;47.30;;;;;;5034983;28;20517;-68
2021/03/03 09:10:47;;;;;;;4.57;4.07;;;22.90;47.20;;;;;;5035092;28;20238;-66
2021/03/03 09:13:24;;;;;;;3.90;3.50;;;22.90;47.20;;;;;;5034520;28;20481;-68
2021/03/03 09:16:06;;;;;;;4.33;3.57;;;23.00;47.30;;;;;;5035121;28;20464;-66
2021/03/03 09:18:33;;;;;;;3.33;3.03;;;23.00;47.30;;;;;;5034768;28;20512;-68
2021/03/03 09:21:11;;;;;;;4.90;3.80;;;22.90;47.30;;;;;;5035156;28;20870;-67
2021/03/03 09:23:39;;;;;;;3.50;3.10;;;23.00;47.30;;;;;;5034948;28;20734;-68
2021/03/03 09:26:20;;;;;;;3.50;3.20;;;22.90;47.30;;;;;;5033454;28;20414;-68
2021/03/03 09:28:46;;;;;;;4.60;3.53;;;23.00;47.30;;;;;;5034606;28;20521;-66
2021/03/03 09:31:34;;;;;;;4.13;3.63;;;22.90;47.30;;;;;;5034662;28;20494;-68
2021/03/03 09:34:01;;;;;;;3.73;3.43;;;23.00;47.30;;;;;;5034667;28;20172;-68
2021/03/03 09:36:26;;;;;;;3.70;3.20;;;23.00;47.40;;;;;;5034543;28;20493;-68
2021/03/03 09:39:00;;;;;;;3.47;3.13;;;23.00;47.90;;;;;;5034353;28;20553;-68
2021/03/03 09:41:27;;;;;;;5.33;3.40;;;23.00;47.40;;;;;;5034587;28;20239;-67
2021/03/03 09:44:07;;;;;;;4.30;3.20;;;23.00;47.40;;;;;;5034543;28;20417;-69
2021/03/03 09:46:57;;;;;;;5.00;3.60;;;23.00;47.40;;;;;;5034462;28;20410;-69
2021/03/03 09:49:25;;;;;;;5.20;3.00;;;23.00;47.40;;;;;;5034385;28;20395;-67
2021/03/03 09:51:51;;;;;;;5.03;3.20;;;22.90;47.40;;;;;;5034598;28;20500;-67
2021/03/03 09:54:38;;;;;;;5.20;3.27;;;23.00;47.40;;;;;;5034285;28;20415;-68
2021/03/03 09:57:11;;;;;;;4.90;3.27;;;23.00;47.40;;;;;;5034593;28;20422;-67
2021/03/03 09:59:43;;;;;;;5.00;3.50;;;23.00;47.40;;;;;;5034408;28;20406;-68
2021/03/03 10:02:11;;;;;;;3.93;3.10;;;22.90;47.40;;;;;;5034494;28;20409;-67
2021/03/03 10:04:38;;;;;;;3.80;3.00;;;23.00;47.50;;;;;;5034371;28;20481;-66
2021/03/03 10:07:15;;;;;;;4.17;3.20;;;23.00;47.40;;;;;;5033974;28;20471;-67
2021/03/03 10:09:43;;;;;;;4.73;3.60;;;23.00;47.40;;;;;;5034297;28;20397;-67
2021/03/03 10:12:10;;;;;;;5.10;3.53;;;23.00;47.40;;;;;;5033987;28;20430;-68
2021/03/03 10:14:52;;;;;;;3.47;3.10;;;23.00;47.40;;;;;;5033193;28;20399;-66
2021/03/03 10:17:29;;;;;;;3.53;3.23;;;23.00;47.40;;;;;;5033734;28;20549;-68
2021/03/03 10:19:55;;;;;;;4.43;3.43;;;23.00;47.40;;;;;;5033786;28;20457;-68
2021/03/03 10:22:21;;;;;;;5.07;4.10;;;23.00;47.40;;;;;;5033710;28;20438;-67
2021/03/03 10:25:19;;;;;;;3.43;3.13;;;23.00;47.40;;;;;;5033747;28;20172;-68
2021/03/03 10:27:45;;;;;;;4.27;3.20;;;23.00;47.40;;;;;;5033459;28;20211;-68
2021/03/03 10:30:23;;;;;;;3.50;3.20;;;23.00;47.50;;;;;;5033550;28;20425;-66
2021/03/03 10:32:49;;;;;;;4.13;3.73;;;23.00;47.40;;;;;;5033594;28;20171;-67
2021/03/03 10:35:15;;;;;;;3.90;3.20;;;23.00;47.50;;;;;;5033507;28;20422;-68
2021/03/03 10:37:40;;;;;;;4.80;3.53;;;23.00;47.50;;;;;;5031886;28;20478;-68
2021/03/03 10:40:11;;;;;;;4.40;3.70;;;23.00;47.50;;;;;;5033686;28;20175;-67
2021/03/03 10:42:36;;;;;;;3.60;3.30;;;23.00;47.50;;;;;;5033673;28;20214;-66
2021/03/03 10:45:03;;;;;;;3.57;2.90;;;23.00;47.40;;;;;;5033408;28;20410;-67
2021/03/03 10:47:42;;;;;;;3.27;2.90;;;23.10;47.50;;;;;;5033335;28;20223;-68
2021/03/03 10:50:09;;;;;;;4.37;3.50;;;23.10;47.50;;;;;;5033291;28;20418;-68
2021/03/03 10:52:35;;;;;;;4.70;3.13;;;23.00;47.40;;;;;;5031977;28;20925;-67
2021/03/03 10:55:01;;;;;;;3.83;3.30;;;23.10;47.50;;;;;;5033162;28;20415;-67
2021/03/03 10:57:27;;;;;;;3.50;3.13;;;23.10;47.50;;;;;;5033295;28;20203;-68
2021/03/03 11:00:04;;;;;;;3.97;3.63;;;23.10;47.50;;;;;;5033386;28;20493;-67
2021/03/03 11:02:30;;;;;;;4.30;2.93;;;23.10;47.50;;;;;;5033062;28;20535;-66
2021/03/03 11:04:56;;;;;;;3.87;3.30;;;23.10;47.50;;;;;;5033162;28;20425;-68
2021/03/03 11:07:22;;;;;;;3.67;3.37;;;23.10;47.50;;;;;;5032010;28;20199;-67
2021/03/03 11:09:52;;;;;;;5.43;3.50;;;23.10;47.50;;;;;;5033066;28;20460;-68
2021/03/03 11:12:23;;;;;;;3.63;3.30;;;23.10;47.50;;;;;;5031774;28;20524;-68
2021/03/03 11:14:49;;;;;;;4.37;2.80;;;23.10;47.50;;;;;;5031758;28;20425;-68
2021/03/03 11:17:14;;;;;;;3.17;2.87;;;23.10;47.50;;;;;;5031621;28;20419;-67
2021/03/03 11:19:40;;;;;;;4.30;3.57;;;23.10;47.50;;;;;;5032989;28;20846;-68
2021/03/03 11:22:06;;;;;;;3.20;2.90;;;23.10;47.50;;;;;;5031724;28;20266;-67
2021/03/03 11:24:32;;;;;;;5.17;4.70;;;23.10;47.50;;;;;;5032922;28;20253;-67
2021/03/03 11:26:57;;;;;;;5.00;3.23;;;23.10;47.50;;;;;;5034633;28;20270;-67
2021/03/03 11:29:23;;;;;;;3.63;2.90;;;23.10;47.50;;;;;;5037025;28;20203;-67
2021/03/03 11:31:48;;;;;;;4.07;3.67;;;23.10;47.50;;;;;;5037020;28;20700;-67
2021/03/03 11:34:14;;;;;;;5.27;3.07;;;23.10;47.50;;;;;;5036958;28;20180;-68
2021/03/03 11:36:40;;;;;;;4.13;3.73;;;23.10;47.50;;;;;;5035464;28;20646;-67
2021/03/03 11:39:10;;;;;;;5.30;3.00;;;23.10;47.50;;;;;;5036707;28;20207;-68
2021/03/03 11:41:36;;;;;;;3.33;2.93;;;23.10;47.50;;;;;;5037073;28;20483;-65
2021/03/03 11:44:03;;;;;;;4.23;3.03;;;23.10;47.50;;;;;;5036916;28;20406;-68
2021/03/03 11:46:28;;;;;;;3.53;3.20;;;23.10;47.50;;;;;;5037202;28;20425;-66
2021/03/03 11:48:54;;;;;;;3.70;3.20;;;23.10;47.50;;;;;;5036622;28;20936;-67
2021/03/03 11:51:19;;;;;;;3.50;3.10;;;23.10;47.50;;;;;;5036579;28;20765;-67
2021/03/03 11:53:45;;;;;;;4.00;3.50;;;23.10;47.50;;;;;;5035309;28;20179;-67
2021/03/03 11:56:11;;;;;;;2.70;2.50;;;23.10;47.50;;;;;;5036424;28;20258;-68
2021/03/03 11:58:36;;;;;;;5.10;3.43;;;23.10;47.50;;;;;;5036407;28;20206;-68
2021/03/03 12:01:03;;;;;;;3.70;3.20;;;23.10;47.50;;;;;;5036467;28;20183;-67
2021/03/03 12:03:28;;;;;;;4.77;3.63;;;23.10;47.50;;;;;;5036629;28;20175;-67
2021/03/03 12:05:54;;;;;;;3.30;2.80;;;23.10;47.50;;;;;;5035627;28;20418;-68
2021/03/03 12:08:20;;;;;;;3.27;2.70;;;23.10;47.50;;;;;;5036213;28;20199;-68
2021/03/03 12:10:45;;;;;;;3.63;3.00;;;23.10;47.50;;;;;;5036284;28;20705;-67
2021/03/03 12:13:11;;;;;;;3.03;2.73;;;23.10;47.40;;;;;;5036160;28;20207;-68
2021/03/03 12:15:36;;;;;;;3.57;3.27;;;23.10;47.40;;;;;;5036335;28;20167;-68
2021/03/03 12:18:02;;;;;;;3.77;3.13;;;23.10;47.50;;;;;;5036541;28;20250;-67
2021/03/03 12:20:28;;;;;;;4.00;3.60;;;23.10;47.40;;;;;;5036098;28;20195;-66
2021/03/03 12:22:55;;;;;;;3.17;2.87;;;23.10;47.40;;;;;;5036057;28;20418;-68
2021/03/03 12:25:21;;;;;;;3.30;3.00;;;23.10;47.40;;;;;;5036249;28;20402;-68
2021/03/03 12:27:46;;;;;;;3.67;3.17;;;23.10;47.40;;;;;;5035922;28;20513;-65
2021/03/03 12:30:12;;;;;;;3.30;3.00;;;23.10;47.40;;;;;;5035832;28;20320;-67
2021/03/03 12:32:38;;;;;;;2.67;2.30;;;23.10;47.40;;;;;;5034658;28;20178;-68
2021/03/03 12:35:05;;;;;;;2.77;2.30;;;23.10;47.50;;;;;;5036061;28;20823;-68
2021/03/03 12:37:31;;;;;;;4.13;3.40;;;23.00;47.40;;;;;;5034422;28;20211;-67
2021/03/03 12:39:57;;;;;;;3.30;3.00;;;23.00;47.40;;;;;;5035687;28;20528;-68
2021/03/03 12:42:22;;;;;;;3.10;2.80;;;23.10;47.40;;;;;;5035959;28;20230;-68
2021/03/03 12:44:49;;;;;;;3.83;3.20;;;23.00;47.40;;;;;;5035932;28;20576;-68
2021/03/03 12:47:14;;;;;;;3.20;2.73;;;23.10;47.40;;;;;;5034226;28;20171;-68
2021/03/03 12:49:40;;;;;;;3.30;3.00;;;23.00;47.40;;;;;;5035541;28;20410;-68
2021/03/03 12:52:06;;;;;;;3.43;2.80;;;23.00;47.40;;;;;;5035744;28;20195;-68
2021/03/03 12:54:31;;;;;;;3.63;2.97;;;23.00;47.40;;;;;;5035520;28;20585;-68